La Guardia Airport
KLGA : now visible

Airfield :











YOU CAN JOIN US ON...

 
LOGIN :

Register | Disclaimer

   EN    FR    IT 

 









Legend :    VFR   Marginal VFR   IFR   Intensive IFR   Very Intensive IFR
Visi :
Ceiling :
>= 8 km
>= 3000ft
5 to 8 km
1000 to 3000 ft
1500m to 5 km
500 to 1000 ft
800 to 1500m
200 to 500 ft
< 800m
< 200 ft
Symbols :   Thunderstorms  Fog  Heavy snow  Heavy precipitations  Wind > 20 kt






- Airport Elevation : 21 ft
- IATA code : LGA


KLGA - La Guardia

CURRENT METAR :
  • 061151Z VRB03KT 6SM HZ SCT007 BKN015 BKN250 23/21 A2978 RMK AO2 SLP085 60000 70011 T02330206 10239 20206 58002

EXPIRED METARs :
  • 061139Z 00000KT 7SM SCT007 BKN015 BKN250 24/21 A2979 RMK AO2 T02390206
  • 061051Z VRB03KT 5SM BR FEW009 FEW015 SCT150 SCT250 22/20 A2979 RMK AO2 SLP087 T02170200
  • 060951Z 00000KT 7SM SCT007 BKN012 OVC016 21/19 A2979 RMK AO2 SLP089 T02110194
  • 060936Z 14003KT 7SM FEW007 OVC012 21/19 A2979 RMK AO2 T02110189

TAF KLGA
Valid from the 06 at 12:00 until the 07 at 18:00 UTC


061139Z 0612/0718 24006KT P6SM SCT015 SCT150
FM061500 25010KT P6SM FEW020 SCT060
FM061900 27013G21KT P6SM VCTS BKN050CB
FM062100 31016G24KT P6SM SCT060 SCT100
FM062300 33012G20KT P6SM FEW060 FEW100
FM070400 33011KT P6SM FEW060 FEW100
FM071200 35012G19KT P6SM SKC
KZNY FIR / North America



MET'MAP, your aeronautical weather chart ! - Copyright ORBIFLY December 2007 - Disclaimer

ORBIFLY MET'MAP TEAM :

Programming & Development : Alexandra Zaïnal
Concept & original design : Baudouin d'Aumeries
Assistance for programming : Marc-Olivier Méhu
Technical & hardware support : Manuel Goepfert

Contact : metmap@orbifly.com




SOURCES & CREDITS :

   NOAA       Earth
Advisory